Time;durP1;ratioP1;P1;durP2;ratioP2;P2;SDS_P1;SDS_P2;PMS_P1;PMS_P2;Temp;Humidity;BMP_temperature;BMP_pressure;BME280_temperature;BME280_humidity;BME280_pressure;Samples;Min_cycle;Max_cycle;Signal;HPM_P1;HPM_P2
2023/12/06 00:02:02;;;;;;;;;17.00;15.25;;;;;;;;4961861;28;45390;-74
2023/12/06 00:04:27;;;;;;;;;20.00;18.75;;;;;;;;4939042;28;45472;-74
2023/12/06 00:06:52;;;;;;;;;21.00;20.25;;;;;;;;4967962;28;45289;-74
2023/12/06 00:09:17;;;;;;;;;20.25;17.25;;;;;;;;4959264;28;45563;-75
2023/12/06 00:11:43;;;;;;;;;20.75;18.00;;;;;;;;4954269;28;45248;-74
2023/12/06 00:14:08;;;;;;;;;20.75;18.25;;;;;;;;4939716;28;45494;-74
2023/12/06 00:16:33;;;;;;;;;22.00;18.00;;;;;;;;4942109;28;44777;-74
2023/12/06 00:18:59;;;;;;;;;18.25;17.25;;;;;;;;4958678;28;46720;-75
2023/12/06 00:21:24;;;;;;;;;22.25;18.00;;;;;;;;4961568;28;45224;-74
2023/12/06 00:23:49;;;;;;;;;18.25;18.25;;;;;;;;4959930;28;45648;-74
2023/12/06 00:26:14;;;;;;;;;20.25;18.00;;;;;;;;4960277;28;45225;-74
2023/12/06 00:28:39;;;;;;;;;15.75;14.00;;;;;;;;4959725;28;45359;-74
2023/12/06 00:31:05;;;;;;;;;20.00;18.75;;;;;;;;4960267;28;45219;-74
2023/12/06 00:33:30;;;;;;;;;20.75;16.25;;;;;;;;4961454;28;45227;-74
2023/12/06 00:35:55;;;;;;;;;15.25;14.25;;;;;;;;4960535;28;45234;-74
2023/12/06 00:38:20;;;;;;;;;19.50;18.25;;;;;;;;4943581;28;47073;-75
2023/12/06 00:40:45;;;;;;;;;20.25;19.00;;;;;;;;4952669;28;45334;-75
2023/12/06 00:43:11;;;;;;;;;21.75;21.25;;;;;;;;4961574;28;45534;-75
2023/12/06 00:45:36;;;;;;;;;16.75;14.75;;;;;;;;4937048;28;45963;-75
2023/12/06 00:48:02;;;;;;;;;22.75;16.50;;;;;;;;4961635;28;46585;-74
2023/12/06 00:50:27;;;;;;;;;27.00;23.25;;;;;;;;4936754;28;45575;-74
2023/12/06 00:52:52;;;;;;;;;23.50;21.25;;;;;;;;4943549;28;45424;-74
2023/12/06 00:55:17;;;;;;;;;18.20;17.40;;;;;;;;4954771;28;45290;-74
2023/12/06 00:57:43;;;;;;;;;19.50;18.00;;;;;;;;4961013;28;45380;-74
2023/12/06 01:00:09;;;;;;;;;21.25;17.75;;;;;;;;4955069;28;45389;-75
2023/12/06 01:02:34;;;;;;;;;19.00;17.25;;;;;;;;4961225;28;45345;-74
2023/12/06 01:04:59;;;;;;;;;20.75;16.75;;;;;;;;4941602;28;46030;-75
2023/12/06 01:07:24;;;;;;;;;16.75;16.50;;;;;;;;4965603;28;45508;-75
2023/12/06 01:09:49;;;;;;;;;21.75;17.25;;;;;;;;4957243;28;45270;-74
2023/12/06 01:12:15;;;;;;;;;16.50;15.75;;;;;;;;4964847;28;45274;-75
2023/12/06 01:14:40;;;;;;;;;19.50;15.25;;;;;;;;4955783;28;45623;-75
2023/12/06 01:17:05;;;;;;;;;17.25;16.00;;;;;;;;4960854;28;45463;-74
2023/12/06 01:19:30;;;;;;;;;16.25;14.00;;;;;;;;4956261;28;45354;-74
2023/12/06 01:21:56;;;;;;;;;23.00;20.25;;;;;;;;4961104;28;45306;-75
2023/12/06 01:24:21;;;;;;;;;13.75;11.00;;;;;;;;4957850;28;45369;-74
2023/12/06 01:26:46;;;;;;;;;17.00;15.00;;;;;;;;4960698;28;46308;-74
2023/12/06 01:29:11;;;;;;;;;19.50;17.00;;;;;;;;4941464;28;45292;-74
2023/12/06 01:31:38;;;;;;;;;19.75;16.25;;;;;;;;4960944;28;44796;-75
2023/12/06 01:34:05;;;;;;;;;22.25;16.00;;;;;;;;4959305;28;45416;-75
2023/12/06 01:36:30;;;;;;;;;16.75;16.50;;;;;;;;4960551;28;45487;-75
2023/12/06 01:38:55;;;;;;;;;17.75;16.25;;;;;;;;4958317;28;45266;-74
2023/12/06 01:41:20;;;;;;;;;21.25;16.50;;;;;;;;4956168;28;45311;-74
2023/12/06 01:43:45;;;;;;;;;18.25;16.00;;;;;;;;4958309;28;45299;-75
2023/12/06 01:46:11;;;;;;;;;23.40;16.20;;;;;;;;4958581;28;45199;-74
2023/12/06 01:48:36;;;;;;;;;18.25;16.50;;;;;;;;4959512;28;45480;-74
2023/12/06 01:51:02;;;;;;;;;20.25;16.25;;;;;;;;4958079;28;45373;-74
2023/12/06 01:53:27;;;;;;;;;16.00;14.25;;;;;;;;4959475;28;45341;-74
2023/12/06 01:55:53;;;;;;;;;20.50;17.25;;;;;;;;4954475;28;45463;-74
2023/12/06 01:58:18;;;;;;;;;18.25;15.00;;;;;;;;4960091;28;45321;-74
2023/12/06 02:00:45;;;;;;;;;21.75;20.00;;;;;;;;4955074;28;45290;-74
2023/12/06 02:03:10;;;;;;;;;17.00;15.50;;;;;;;;4959928;28;45370;-74
2023/12/06 02:05:35;;;;;;;;;17.00;16.00;;;;;;;;4953286;28;45520;-74
2023/12/06 02:08:02;;;;;;;;;21.00;20.25;;;;;;;;4962742;28;45263;-74
2023/12/06 02:10:27;;;;;;;;;27.75;21.00;;;;;;;;4937494;28;45568;-74
2023/12/06 02:12:52;;;;;;;;;19.75;17.00;;;;;;;;4960157;28;45414;-75
2023/12/06 02:15:18;;;;;;;;;20.50;16.00;;;;;;;;4954023;28;46535;-75
2023/12/06 02:17:43;;;;;;;;;22.00;19.00;;;;;;;;4960089;28;45388;-75
2023/12/06 02:20:09;;;;;;;;;23.75;19.25;;;;;;;;4955983;28;44783;-74
2023/12/06 02:22:34;;;;;;;;;18.25;15.75;;;;;;;;4957449;28;45370;-74
2023/12/06 02:25:02;;;;;;;;;21.00;20.00;;;;;;;;4956514;28;45249;-74
2023/12/06 02:27:27;;;;;;;;;22.00;19.50;;;;;;;;4959851;28;45426;-74
2023/12/06 02:29:53;;;;;;;;;22.25;20.50;;;;;;;;4956584;28;45317;-75
2023/12/06 02:32:18;;;;;;;;;22.00;16.50;;;;;;;;4958710;28;45426;-75
2023/12/06 02:34:44;;;;;;;;;29.50;21.75;;;;;;;;4957308;28;45406;-75
2023/12/06 02:37:11;;;;;;;;;21.50;19.00;;;;;;;;4959621;28;45400;-75
2023/12/06 02:39:38;;;;;;;;;17.00;15.75;;;;;;;;4956094;28;45433;-75
2023/12/06 02:42:03;;;;;;;;;17.50;16.50;;;;;;;;4942305;28;45654;-75
2023/12/06 02:44:29;;;;;;;;;23.25;20.50;;;;;;;;4957621;28;45279;-75
2023/12/06 02:46:54;;;;;;;;;21.75;19.25;;;;;;;;4956653;28;45199;-74
2023/12/06 02:49:19;;;;;;;;;19.75;18.25;;;;;;;;4955957;28;45413;-75
2023/12/06 02:51:45;;;;;;;;;21.25;19.25;;;;;;;;4958287;28;45197;-75
2023/12/06 02:54:10;;;;;;;;;24.75;20.00;;;;;;;;4955493;28;45222;-74
2023/12/06 02:56:35;;;;;;;;;23.25;19.25;;;;;;;;4957049;28;45426;-74
2023/12/06 02:59:00;;;;;;;;;21.00;15.00;;;;;;;;4957136;28;45583;-75
2023/12/06 03:01:26;;;;;;;;;21.50;18.75;;;;;;;;4956823;28;45233;-74
2023/12/06 03:03:51;;;;;;;;;24.00;20.25;;;;;;;;4957351;28;45274;-75
2023/12/06 03:06:16;;;;;;;;;23.75;19.00;;;;;;;;4959342;28;45236;-75
2023/12/06 03:08:41;;;;;;;;;19.50;17.50;;;;;;;;4956789;28;45766;-75
2023/12/06 03:11:06;;;;;;;;;20.00;18.00;;;;;;;;4954980;28;45260;-75
2023/12/06 03:13:31;;;;;;;;;19.75;15.75;;;;;;;;4958647;28;45761;-75
2023/12/06 03:15:57;;;;;;;;;23.25;20.75;;;;;;;;4959716;28;45186;-75
2023/12/06 03:18:22;;;;;;;;;30.75;22.25;;;;;;;;4962928;28;45201;-75
2023/12/06 03:20:47;;;;;;;;;18.75;16.25;;;;;;;;4958531;28;45212;-75
2023/12/06 03:23:12;;;;;;;;;20.25;18.00;;;;;;;;4945025;28;47081;-75
2023/12/06 03:25:37;;;;;;;;;20.00;16.25;;;;;;;;4944126;28;45438;-75
2023/12/06 03:28:03;;;;;;;;;9.25;7.75;;;;;;;;4960583;28;45636;-74
2023/12/06 03:30:28;;;;;;;;;23.00;20.25;;;;;;;;4959498;28;45638;-75
2023/12/06 03:32:53;;;;;;;;;23.50;16.75;;;;;;;;4944848;28;47086;-75
2023/12/06 03:35:18;;;;;;;;;24.00;22.00;;;;;;;;4960490;28;45270;-75
2023/12/06 03:37:44;;;;;;;;;24.50;19.00;;;;;;;;4943570;28;45282;-74
2023/12/06 03:40:09;;;;;;;;;20.75;18.50;;;;;;;;4960281;28;45342;-75
2023/12/06 03:42:34;;;;;;;;;17.75;17.00;;;;;;;;4962197;28;46466;-75
2023/12/06 03:44:59;;;;;;;;;24.25;18.50;;;;;;;;4954658;28;44827;-74
2023/12/06 03:47:25;;;;;;;;;19.00;18.00;;;;;;;;4965570;28;45456;-75
2023/12/06 03:49:51;;;;;;;;;16.25;15.50;;;;;;;;4963448;28;45504;-74
2023/12/06 03:52:16;;;;;;;;;21.00;14.80;;;;;;;;4962352;28;45653;-74
2023/12/06 03:54:41;;;;;;;;;17.50;15.75;;;;;;;;4960070;28;45524;-74
2023/12/06 03:57:06;;;;;;;;;18.00;16.25;;;;;;;;4944902;28;45467;-74
2023/12/06 03:59:31;;;;;;;;;19.50;16.00;;;;;;;;4957580;28;45302;-75
2023/12/06 04:01:56;;;;;;;;;27.25;19.00;;;;;;;;4961874;28;45366;-74
2023/12/06 04:04:22;;;;;;;;;15.50;15.00;;;;;;;;4959294;28;45486;-74
2023/12/06 04:06:47;;;;;;;;;17.75;16.50;;;;;;;;4969999;28;45281;-74
2023/12/06 04:09:13;;;;;;;;;20.25;16.75;;;;;;;;4957984;28;45488;-75
2023/12/06 04:11:38;;;;;;;;;16.25;15.00;;;;;;;;4958013;28;45551;-73
2023/12/06 04:14:03;;;;;;;;;20.75;15.50;;;;;;;;4960268;28;45201;-73
2023/12/06 04:16:29;;;;;;;;;21.00;14.75;;;;;;;;4961590;28;45603;-74
2023/12/06 04:18:55;;;;;;;;;19.25;16.50;;;;;;;;4959276;28;45446;-73
2023/12/06 04:21:20;;;;;;;;;15.75;14.50;;;;;;;;4961187;28;45555;-73
2023/12/06 04:23:45;;;;;;;;;20.50;18.50;;;;;;;;4941795;28;45344;-73
2023/12/06 04:26:10;;;;;;;;;19.25;16.50;;;;;;;;4959489;28;45275;-73
2023/12/06 04:28:35;;;;;;;;;19.25;17.25;;;;;;;;4960795;28;45280;-72
2023/12/06 04:31:01;;;;;;;;;21.80;18.20;;;;;;;;4959620;28;45432;-73
2023/12/06 04:33:26;;;;;;;;;19.50;16.75;;;;;;;;4944091;28;45378;-73
2023/12/06 04:35:51;;;;;;;;;20.50;19.25;;;;;;;;4959700;28;45305;-73
2023/12/06 04:38:16;;;;;;;;;24.75;19.00;;;;;;;;4966030;28;45461;-72
2023/12/06 04:40:41;;;;;;;;;16.75;10.00;;;;;;;;4938380;28;46898;-72
2023/12/06 04:43:06;;;;;;;;;19.25;18.00;;;;;;;;4959093;28;45332;-72
2023/12/06 04:45:32;;;;;;;;;17.00;14.25;;;;;;;;4955200;28;45351;-72
2023/12/06 04:47:57;;;;;;;;;20.75;15.75;;;;;;;;4960920;28;45450;-72
2023/12/06 04:50:22;;;;;;;;;19.00;17.00;;;;;;;;4938342;28;47088;-72
2023/12/06 04:52:48;;;;;;;;;18.50;17.75;;;;;;;;4960989;28;45229;-72
2023/12/06 04:55:13;;;;;;;;;18.75;15.25;;;;;;;;4943001;28;45334;-73
2023/12/06 04:57:38;;;;;;;;;23.50;18.00;;;;;;;;4960537;28;45297;-72
2023/12/06 05:00:07;;;;;;;;;15.75;15.75;;;;;;;;4953886;28;45553;-73
2023/12/06 05:02:32;;;;;;;;;15.00;13.75;;;;;;;;4961047;28;44712;-72
2023/12/06 05:04:57;;;;;;;;;21.25;16.25;;;;;;;;4958315;28;45419;-72
2023/12/06 05:07:22;;;;;;;;;20.25;15.75;;;;;;;;4964234;28;45394;-72
2023/12/06 05:09:48;;;;;;;;;19.75;16.50;;;;;;;;4958182;28;45544;-72
2023/12/06 05:12:14;;;;;;;;;20.00;16.75;;;;;;;;4967287;28;45274;-72
2023/12/06 05:14:39;;;;;;;;;21.00;15.75;;;;;;;;4957756;28;45377;-72
2023/12/06 05:17:04;;;;;;;;;19.60;17.80;;;;;;;;4961011;28;45287;-72
2023/12/06 05:19:29;;;;;;;;;18.25;13.50;;;;;;;;4955235;28;45566;-72
2023/12/06 05:21:54;;;;;;;;;19.50;16.50;;;;;;;;4960387;28;45212;-73
2023/12/06 05:24:20;;;;;;;;;19.25;14.50;;;;;;;;4959168;28;45138;-72
2023/12/06 05:26:45;;;;;;;;;13.75;13.00;;;;;;;;4960563;28;44791;-73
2023/12/06 05:29:11;;;;;;;;;17.75;17.25;;;;;;;;4957468;28;45719;-73
2023/12/06 05:31:36;;;;;;;;;19.50;16.50;;;;;;;;4942043;28;45432;-72
2023/12/06 05:34:01;;;;;;;;;18.75;18.75;;;;;;;;4959655;28;45208;-73
2023/12/06 05:36:27;;;;;;;;;18.00;17.00;;;;;;;;4954468;28;45282;-73
2023/12/06 05:38:52;;;;;;;;;17.00;17.00;;;;;;;;4957687;28;46438;-73
2023/12/06 05:41:17;;;;;;;;;19.00;15.50;;;;;;;;4935018;28;45240;-73
2023/12/06 05:43:42;;;;;;;;;18.25;15.25;;;;;;;;4952902;28;45425;-72
2023/12/06 05:46:07;;;;;;;;;19.00;15.75;;;;;;;;4955890;28;45579;-73
2023/12/06 05:48:33;;;;;;;;;19.25;17.00;;;;;;;;4959388;28;45585;-73
2023/12/06 05:50:58;;;;;;;;;24.00;18.00;;;;;;;;4952331;28;45481;-73
2023/12/06 05:53:23;;;;;;;;;16.25;16.25;;;;;;;;4959065;28;45338;-73
2023/12/06 05:55:48;;;;;;;;;15.50;15.00;;;;;;;;4950419;28;45764;-72
2023/12/06 05:58:14;;;;;;;;;19.75;18.50;;;;;;;;4954416;28;45362;-70
2023/12/06 06:00:39;;;;;;;;;20.00;13.25;;;;;;;;4955576;28;45665;-71
2023/12/06 06:03:04;;;;;;;;;17.25;14.75;;;;;;;;4943099;28;45366;-71
2023/12/06 06:05:29;;;;;;;;;18.00;17.25;;;;;;;;4941895;28;45962;-71
2023/12/06 06:07:57;;;;;;;;;20.75;18.75;;;;;;;;4960688;28;45371;-71
2023/12/06 06:10:22;;;;;;;;;22.75;18.00;;;;;;;;4958383;28;44824;-71
2023/12/06 06:12:47;;;;;;;;;18.75;17.00;;;;;;;;4959398;28;45417;-72
2023/12/06 06:15:12;;;;;;;;;26.00;20.00;;;;;;;;4954103;28;45386;-72
2023/12/06 06:17:38;;;;;;;;;20.00;17.50;;;;;;;;4942503;28;47029;-73
2023/12/06 06:20:03;;;;;;;;;17.25;15.25;;;;;;;;4955539;28;45382;-72
2023/12/06 06:22:28;;;;;;;;;22.25;16.00;;;;;;;;4960489;28;45308;-72
2023/12/06 06:24:53;;;;;;;;;19.00;17.60;;;;;;;;4957331;28;45365;-71
2023/12/06 06:27:19;;;;;;;;;22.60;18.40;;;;;;;;4958863;28;45407;-72
2023/12/06 06:29:44;;;;;;;;;19.50;15.25;;;;;;;;4958457;28;45507;-72
2023/12/06 06:32:09;;;;;;;;;21.25;18.50;;;;;;;;4960552;28;45205;-73
2023/12/06 06:34:35;;;;;;;;;17.50;15.50;;;;;;;;4958066;28;45248;-72
2023/12/06 06:37:00;;;;;;;;;22.00;18.50;;;;;;;;4960135;28;45275;-73
2023/12/06 06:39:28;;;;;;;;;16.50;15.25;;;;;;;;4957432;28;46141;-73
2023/12/06 06:41:53;;;;;;;;;19.00;17.25;;;;;;;;4941444;28;45369;-73
2023/12/06 06:44:18;;;;;;;;;19.25;18.75;;;;;;;;4956260;28;45452;-73
2023/12/06 06:46:43;;;;;;;;;20.20;18.80;;;;;;;;4957585;28;46616;-72
2023/12/06 06:49:08;;;;;;;;;24.50;17.50;;;;;;;;4960187;28;45365;-73
2023/12/06 06:51:37;;;;;;;;;18.25;15.50;;;;;;;;4968480;28;45412;-73
2023/12/06 06:54:03;;;;;;;;;25.50;24.50;;;;;;;;4962352;28;45624;-73
2023/12/06 06:56:28;;;;;;;;;26.50;23.25;;;;;;;;4962474;28;45407;-73
2023/12/06 06:58:53;;;;;;;;;27.75;19.75;;;;;;;;4943827;28;45460;-75
2023/12/06 07:01:19;;;;;;;;;27.25;23.00;;;;;;;;4959275;28;45440;-73
2023/12/06 07:03:44;;;;;;;;;22.75;22.75;;;;;;;;4962325;28;45262;-74
2023/12/06 07:06:09;;;;;;;;;23.25;20.50;;;;;;;;4944524;28;47771;-74
2023/12/06 07:08:35;;;;;;;;;27.00;25.00;;;;;;;;4963164;28;45191;-73
2023/12/06 07:11:00;;;;;;;;;28.25;24.75;;;;;;;;4959906;28;45278;-74
2023/12/06 07:13:26;;;;;;;;;41.25;33.25;;;;;;;;4961884;28;45320;-73
2023/12/06 07:15:51;;;;;;;;;46.00;36.75;;;;;;;;4961049;28;45230;-74
2023/12/06 07:18:16;;;;;;;;;42.75;36.75;;;;;;;;4963261;28;44722;-74
2023/12/06 07:20:41;;;;;;;;;46.00;35.25;;;;;;;;4939459;28;45261;-74
2023/12/06 07:23:08;;;;;;;;;49.75;38.50;;;;;;;;4960848;28;45556;-74
2023/12/06 07:25:33;;;;;;;;;40.00;33.00;;;;;;;;4941506;28;46327;-73
2023/12/06 07:27:58;;;;;;;;;43.40;36.40;;;;;;;;4963431;28;45261;-73
2023/12/06 07:30:23;;;;;;;;;40.25;30.50;;;;;;;;4960475;28;45469;-74
2023/12/06 07:32:48;;;;;;;;;34.50;30.00;;;;;;;;4961884;28;45486;-73
2023/12/06 07:35:14;;;;;;;;;38.80;34.60;;;;;;;;4945040;28;46858;-73
2023/12/06 07:37:39;;;;;;;;;53.25;40.25;;;;;;;;4945455;28;45342;-74
2023/12/06 07:40:07;;;;;;;;;29.00;23.25;;;;;;;;4961197;28;45523;-73
2023/12/06 07:42:32;;;;;;;;;32.00;22.50;;;;;;;;4963836;28;45524;-73
2023/12/06 07:44:57;;;;;;;;;33.75;28.75;;;;;;;;4960257;28;45456;-73
2023/12/06 07:47:22;;;;;;;;;35.25;32.25;;;;;;;;4962644;28;45354;-73
2023/12/06 07:49:48;;;;;;;;;68.50;51.00;;;;;;;;4958907;28;45480;-73
2023/12/06 07:52:13;;;;;;;;;64.75;47.00;;;;;;;;4963366;28;45310;-73
2023/12/06 07:54:38;;;;;;;;;39.00;33.50;;;;;;;;4959690;28;45124;-73
2023/12/06 07:57:04;;;;;;;;;37.50;32.75;;;;;;;;4963281;28;44739;-73
2023/12/06 07:59:30;;;;;;;;;45.75;39.00;;;;;;;;4956263;28;45220;-73
2023/12/06 08:01:55;;;;;;;;;46.00;38.25;;;;;;;;4957287;28;45244;-75
2023/12/06 08:04:20;;;;;;;;;30.25;23.00;;;;;;;;4958496;28;46501;-75
2023/12/06 08:06:46;;;;;;;;;41.25;33.25;;;;;;;;4962821;28;46235;-76
2023/12/06 08:09:12;;;;;;;;;51.50;42.50;;;;;;;;4959678;28;45374;-76
2023/12/06 08:11:38;;;;;;;;;54.00;43.75;;;;;;;;4961858;28;45388;-74
2023/12/06 08:14:03;;;;;;;;;38.75;32.75;;;;;;;;4960566;28;45511;-74
2023/12/06 08:16:29;;;;;;;;;34.50;34.00;;;;;;;;4955459;28;45398;-74
2023/12/06 08:18:54;;;;;;;;;33.25;29.25;;;;;;;;4960943;28;45388;-75
2023/12/06 08:21:19;;;;;;;;;34.25;30.75;;;;;;;;4961302;28;45528;-74
2023/12/06 08:23:44;;;;;;;;;30.50;25.25;;;;;;;;4961806;28;45375;-74
2023/12/06 08:26:10;;;;;;;;;30.00;24.00;;;;;;;;4959111;28;45405;-74
2023/12/06 08:28:36;;;;;;;;;28.25;25.00;;;;;;;;4961295;28;45231;-75
2023/12/06 08:31:01;;;;;;;;;33.75;25.00;;;;;;;;4942838;28;45547;-76
2023/12/06 08:33:26;;;;;;;;;33.75;26.50;;;;;;;;4962263;28;45378;-74
2023/12/06 08:35:51;;;;;;;;;35.25;30.75;;;;;;;;4959820;28;45575;-75
2023/12/06 08:38:17;;;;;;;;;32.60;27.00;;;;;;;;4962906;28;45325;-75
2023/12/06 08:40:42;;;;;;;;;26.75;21.75;;;;;;;;4959756;28;45480;-74
2023/12/06 08:43:07;;;;;;;;;31.75;27.25;;;;;;;;4940887;28;46866;-74
2023/12/06 08:45:33;;;;;;;;;35.75;29.25;;;;;;;;4938660;28;45580;-75
2023/12/06 08:47:59;;;;;;;;;32.50;28.50;;;;;;;;4942238;28;45392;-74
2023/12/06 08:50:25;;;;;;;;;40.00;35.25;;;;;;;;4960567;28;45417;-74
2023/12/06 08:52:50;;;;;;;;;36.25;35.25;;;;;;;;4963607;28;45287;-74
2023/12/06 08:55:16;;;;;;;;;34.50;33.50;;;;;;;;4958333;28;45365;-75
2023/12/06 08:57:41;;;;;;;;;39.75;30.00;;;;;;;;4950174;28;45324;-75
2023/12/06 09:00:09;;;;;;;;;37.00;23.25;;;;;;;;4957803;28;44700;-75
2023/12/06 09:02:34;;;;;;;;;33.75;32.25;;;;;;;;4961492;28;45297;-75
2023/12/06 09:05:00;;;;;;;;;29.75;27.50;;;;;;;;4942317;28;45440;-75
2023/12/06 09:07:25;;;;;;;;;25.50;24.25;;;;;;;;4952139;28;45727;-75
2023/12/06 09:09:50;;;;;;;;;32.25;28.75;;;;;;;;4943071;28;45464;-74
2023/12/06 09:12:15;;;;;;;;;28.75;27.50;;;;;;;;4959705;28;45249;-74
2023/12/06 09:14:41;;;;;;;;;28.00;26.75;;;;;;;;4940998;28;45601;-75
2023/12/06 09:17:06;;;;;;;;;31.25;28.00;;;;;;;;4957407;28;45287;-75
2023/12/06 09:19:32;;;;;;;;;29.00;21.25;;;;;;;;4938029;28;45752;-75
2023/12/06 09:21:57;;;;;;;;;32.00;30.40;;;;;;;;4957824;28;45501;-76
2023/12/06 09:24:22;;;;;;;;;33.75;26.00;;;;;;;;4958184;28;45580;-75
2023/12/06 09:26:47;;;;;;;;;28.25;25.75;;;;;;;;4943057;28;45557;-75
2023/12/06 09:29:13;;;;;;;;;29.25;27.75;;;;;;;;4958772;28;45588;-76
2023/12/06 09:31:38;;;;;;;;;29.75;25.50;;;;;;;;4960674;28;45366;-76
2023/12/06 09:34:12;;;;;;;;;30.50;29.50;;;;;;;;5089215;27;45532;-75
2023/12/06 09:36:39;;;;;;;;;29.50;23.75;;;;;;;;5075603;28;45352;-77
2023/12/06 09:39:04;;;;;;;;;35.75;29.50;;;;;;;;5073804;27;45334;-77
2023/12/06 09:41:31;;;;;;;;;24.75;24.75;;;;;;;;5071569;28;45367;-75
2023/12/06 09:43:57;;;;;;;;;27.75;25.25;;;;;;;;5074937;28;45486;-77
2023/12/06 09:46:22;;;;;;;;;31.75;31.00;;;;;;;;5075660;28;45319;-74
2023/12/06 09:48:48;;;;;;;;;35.50;31.00;;;;;;;;5073493;28;45835;-72
2023/12/06 09:51:14;;;;;;;;;37.50;34.25;;;;;;;;5075365;28;45557;-72
2023/12/06 09:53:39;;;;;;;;;32.50;27.00;;;;;;;;5074669;28;46707;-72
2023/12/06 09:56:06;;;;;;;;;32.25;30.75;;;;;;;;5074174;28;45404;-72
2023/12/06 09:58:31;;;;;;;;;33.25;31.25;;;;;;;;5073933;28;45317;-74
2023/12/06 10:00:57;;;;;;;;;39.50;34.25;;;;;;;;5084369;27;45652;-73
2023/12/06 10:03:22;;;;;;;;;37.25;32.75;;;;;;;;5075377;28;45292;-75
2023/12/06 10:05:55;;;;;;;;;41.25;35.00;;;;;;;;5074391;28;45428;-73
2023/12/06 10:08:20;;;;;;;;;41.25;35.25;;;;;;;;5074022;27;46023;-75
2023/12/06 10:10:45;;;;;;;;;45.50;34.75;;;;;;;;5071615;27;45443;-73
2023/12/06 10:13:10;;;;;;;;;42.50;37.50;;;;;;;;5074776;28;45498;-75
2023/12/06 10:15:37;;;;;;;;;46.75;39.25;;;;;;;;5074575;28;45453;-75
2023/12/06 10:18:03;;;;;;;;;28.50;25.50;;;;;;;;5074415;28;45204;-75
2023/12/06 10:20:28;;;;;;;;;31.00;29.00;;;;;;;;5090451;27;46160;-74
2023/12/06 10:22:53;;;;;;;;;37.25;31.25;;;;;;;;5074806;28;45691;-75
2023/12/06 10:25:19;;;;;;;;;27.50;27.25;;;;;;;;5074056;28;45275;-74
2023/12/06 10:27:45;;;;;;;;;33.50;26.50;;;;;;;;5074130;27;44821;-75
2023/12/06 10:30:11;;;;;;;;;31.00;29.25;;;;;;;;5074460;28;45466;-74
2023/12/06 10:32:36;;;;;;;;;66.25;50.50;;;;;;;;5081301;27;45326;-74
2023/12/06 10:35:03;;;;;;;;;32.75;26.50;;;;;;;;5093842;27;45400;-74
2023/12/06 10:37:28;;;;;;;;;27.00;23.00;;;;;;;;5080750;27;45485;-74
2023/12/06 10:39:59;;;;;;;;;35.50;27.50;;;;;;;;5094892;27;45661;-75
2023/12/06 10:42:28;;;;;;;;;23.00;22.25;;;;;;;;5094962;27;45508;-75
2023/12/06 10:44:55;;;;;;;;;33.25;27.75;;;;;;;;5084635;27;45334;-73
2023/12/06 10:47:20;;;;;;;;;32.25;28.25;;;;;;;;5079669;27;45319;-74
2023/12/06 10:49:47;;;;;;;;;25.00;24.00;;;;;;;;5081022;28;45697;-74
2023/12/06 10:52:13;;;;;;;;;38.50;29.75;;;;;;;;5061015;28;47504;-73
2023/12/06 10:54:41;;;;;;;;;62.25;47.25;;;;;;;;5080676;28;44769;-73
2023/12/06 10:57:07;;;;;;;;;37.50;33.50;;;;;;;;5077920;28;45287;-74
2023/12/06 10:59:33;;;;;;;;;34.75;26.50;;;;;;;;5080603;28;45386;-74
2023/12/06 11:01:59;;;;;;;;;40.25;36.25;;;;;;;;5075833;28;45511;-74
2023/12/06 11:04:25;;;;;;;;;36.00;29.00;;;;;;;;5079720;27;45386;-75
2023/12/06 11:07:09;;;;;;;;;30.50;25.50;;;;;;;;5081436;28;45222;-74
2023/12/06 11:09:35;;;;;;;;;25.75;24.00;;;;;;;;5073577;28;45279;-73
2023/12/06 11:12:14;;;;;;;;;32.80;27.20;;;;;;;;5062204;28;46948;-74
2023/12/06 11:14:58;;;;;;;;;31.75;25.75;;;;;;;;5077933;28;45572;-74
2023/12/06 11:17:23;;;;;;;;;28.50;24.00;;;;;;;;5081296;28;45452;-73
2023/12/06 11:19:49;;;;;;;;;26.20;23.20;;;;;;;;5077086;28;46377;-73
2023/12/06 11:22:14;;;;;;;;;21.75;21.00;;;;;;;;5080451;28;45690;-73
2023/12/06 11:24:39;;;;;;;;;22.00;21.00;;;;;;;;5080605;28;45260;-74
2023/12/06 11:27:07;;;;;;;;;30.75;25.50;;;;;;;;5081157;28;45230;-73
2023/12/06 11:29:32;;;;;;;;;25.50;23.25;;;;;;;;5076442;28;45149;-74
2023/12/06 11:31:58;;;;;;;;;25.00;21.75;;;;;;;;5077857;28;46327;-70
2023/12/06 11:34:31;;;;;;;;;21.75;18.00;;;;;;;;5080151;27;45563;-73
2023/12/06 11:36:58;;;;;;;;;44.25;36.25;;;;;;;;5080736;28;45354;-73
2023/12/06 11:39:23;;;;;;;;;31.75;28.00;;;;;;;;5080173;28;45322;-72
2023/12/06 11:41:49;;;;;;;;;19.25;18.75;;;;;;;;5057773;28;47430;-72
2023/12/06 11:44:15;;;;;;;;;25.00;22.50;;;;;;;;5081413;28;44827;-72
2023/12/06 11:46:47;;;;;;;;;31.25;24.75;;;;;;;;5082367;28;45335;-73
2023/12/06 11:49:13;;;;;;;;;22.00;20.50;;;;;;;;5080361;28;45430;-72
2023/12/06 11:51:38;;;;;;;;;24.50;23.75;;;;;;;;5062552;28;47132;-72
2023/12/06 11:54:03;;;;;;;;;26.75;26.00;;;;;;;;5079528;28;45655;-72
2023/12/06 11:56:29;;;;;;;;;25.25;19.50;;;;;;;;5079908;28;45241;-72
2023/12/06 11:58:55;;;;;;;;;24.75;22.50;;;;;;;;5078206;28;45480;-72
2023/12/06 12:01:20;;;;;;;;;23.25;20.00;;;;;;;;5073050;27;45436;-72
2023/12/06 12:03:46;;;;;;;;;23.50;23.50;;;;;;;;5079962;28;45344;-72
2023/12/06 12:06:11;;;;;;;;;24.50;21.50;;;;;;;;5080333;28;45379;-72
2023/12/06 12:08:39;;;;;;;;;20.50;18.50;;;;;;;;5061238;28;45974;-73
2023/12/06 12:11:04;;;;;;;;;30.75;25.00;;;;;;;;5079799;28;46336;-72
2023/12/06 12:13:35;;;;;;;;;24.25;21.25;;;;;;;;5080025;28;45233;-72
2023/12/06 12:16:03;;;;;;;;;36.75;32.00;;;;;;;;5079590;28;45327;-72
2023/12/06 12:18:29;;;;;;;;;30.50;22.75;;;;;;;;5080364;28;45278;-72
2023/12/06 12:20:55;;;;;;;;;29.75;25.25;;;;;;;;5079169;28;45441;-72
2023/12/06 12:23:21;;;;;;;;;21.75;21.25;;;;;;;;5080191;28;45334;-72
2023/12/06 12:25:47;;;;;;;;;32.25;28.75;;;;;;;;5075627;28;45260;-72
2023/12/06 12:28:15;;;;;;;;;20.00;20.00;;;;;;;;5079889;28;45534;-72
2023/12/06 12:30:40;;;;;;;;;23.50;18.00;;;;;;;;5077773;28;47207;-72
2023/12/06 12:33:06;;;;;;;;;17.75;17.75;;;;;;;;5079950;28;45489;-72
2023/12/06 12:35:31;;;;;;;;;19.50;16.25;;;;;;;;5079458;28;45323;-72
2023/12/06 12:37:56;;;;;;;;;17.00;15.00;;;;;;;;5079395;28;45524;-72
2023/12/06 12:40:22;;;;;;;;;26.00;18.25;;;;;;;;5078863;28;45534;-72
2023/12/06 12:42:48;;;;;;;;;20.75;16.75;;;;;;;;5061376;28;45908;-72
2023/12/06 12:45:18;;;;;;;;;20.00;17.50;;;;;;;;5079504;28;45312;-72
2023/12/06 12:47:43;;;;;;;;;13.75;11.50;;;;;;;;5079624;28;45241;-72
2023/12/06 12:50:09;;;;;;;;;17.25;15.00;;;;;;;;5078931;28;45538;-72
2023/12/06 12:52:35;;;;;;;;;15.75;11.00;;;;;;;;5074177;28;45299;-72
2023/12/06 12:55:04;;;;;;;;;22.25;15.50;;;;;;;;5070956;28;45500;-72
2023/12/06 12:57:36;;;;;;;;;15.25;13.50;;;;;;;;5078731;28;45268;-72
2023/12/06 13:00:01;;;;;;;;;13.00;11.50;;;;;;;;5079154;28;45374;-72
2023/12/06 13:02:27;;;;;;;;;13.00;12.00;;;;;;;;5079844;28;45241;-73
2023/12/06 13:04:52;;;;;;;;;19.00;14.75;;;;;;;;5079121;28;45296;-73
2023/12/06 13:07:17;;;;;;;;;13.50;13.50;;;;;;;;5079120;28;45291;-72
2023/12/06 13:09:42;;;;;;;;;12.50;11.25;;;;;;;;5079015;28;45768;-72
2023/12/06 13:12:07;;;;;;;;;19.00;15.00;;;;;;;;5079548;28;45399;-72
2023/12/06 13:14:33;;;;;;;;;22.50;22.50;;;;;;;;5079056;28;44865;-72
2023/12/06 13:16:59;;;;;;;;;43.50;36.50;;;;;;;;5077753;28;46061;-72
2023/12/06 13:19:24;;;;;;;;;16.75;15.50;;;;;;;;5078362;28;46019;-72
2023/12/06 13:21:49;;;;;;;;;43.25;37.50;;;;;;;;5079544;28;45333;-72
2023/12/06 13:24:14;;;;;;;;;18.80;15.20;;;;;;;;5079074;28;45220;-72
2023/12/06 13:26:40;;;;;;;;;14.25;12.25;;;;;;;;5061065;28;45518;-72
2023/12/06 13:29:05;;;;;;;;;21.00;14.50;;;;;;;;5077667;28;45513;-72
2023/12/06 13:31:30;;;;;;;;;18.75;11.50;;;;;;;;5079361;28;45293;-72
2023/12/06 13:33:56;;;;;;;;;15.60;12.80;;;;;;;;5078875;28;45386;-72
2023/12/06 13:36:21;;;;;;;;;19.00;13.00;;;;;;;;5079111;28;45229;-72
2023/12/06 13:38:46;;;;;;;;;17.75;13.00;;;;;;;;5078591;28;45579;-72
2023/12/06 13:41:11;;;;;;;;;16.50;11.75;;;;;;;;5078863;28;45123;-72
2023/12/06 13:43:37;;;;;;;;;9.25;9.25;;;;;;;;5079770;28;45413;-72
2023/12/06 13:46:02;;;;;;;;;13.00;10.50;;;;;;;;5077902;28;45394;-72
2023/12/06 13:48:27;;;;;;;;;9.00;7.00;;;;;;;;5061152;28;47421;-72
2023/12/06 13:50:52;;;;;;;;;13.75;9.00;;;;;;;;5054370;28;46078;-72
2023/12/06 13:53:18;;;;;;;;;11.00;9.00;;;;;;;;5079388;28;45230;-72
2023/12/06 13:55:43;;;;;;;;;10.25;10.25;;;;;;;;5077954;28;45302;-72
2023/12/06 13:58:08;;;;;;;;;15.25;8.25;;;;;;;;5077332;28;45618;-71
2023/12/06 14:00:34;;;;;;;;;12.75;9.75;;;;;;;;5073353;28;45343;-73
2023/12/06 14:02:59;;;;;;;;;11.50;11.00;;;;;;;;5060660;28;45379;-74
2023/12/06 14:05:25;;;;;;;;;10.75;7.25;;;;;;;;5077931;28;45339;-71
2023/12/06 14:07:50;;;;;;;;;18.00;13.25;;;;;;;;5073706;28;45494;-73
2023/12/06 14:10:15;;;;;;;;;12.25;12.00;;;;;;;;5059364;28;45441;-74